Time;durP1;ratioP1;P1;durP2;ratioP2;P2;SDS_P1;SDS_P2;PMS_P1;PMS_P2;Temp;Humidity;BMP_temperature;BMP_pressure;BME280_temperature;BME280_humidity;BME280_pressure;Samples;Min_cycle;Max_cycle;Signal;HPM_P1;HPM_P2
2021/12/14 00:00:46;;;;;;;1.75;1.05;;;20.00;58.90;;;;;;4995190;28;88901;-74
2021/12/14 00:03:15;;;;;;;1.58;0.80;;;20.00;58.90;;;;;;5012324;28;86630;-75
2021/12/14 00:05:42;;;;;;;2.80;1.00;;;20.00;58.90;;;;;;5012463;28;86204;-76
2021/12/14 00:08:12;;;;;;;2.20;0.65;;;20.00;59.00;;;;;;5013382;28;86522;-75
2021/12/14 00:13:22;;;;;;;2.05;0.77;;;20.00;59.10;;;;;;5013258;28;86209;-74
2021/12/14 00:15:49;;;;;;;2.58;0.80;;;20.00;59.00;;;;;;4994378;28;86839;-73
2021/12/14 00:18:14;;;;;;;1.50;0.80;;;20.00;59.10;;;;;;5013392;28;85797;-74
2021/12/14 00:20:53;;;;;;;1.77;0.98;;;20.00;59.10;;;;;;5012799;28;86606;-77
2021/12/14 00:26:17;;;;;;;2.42;0.60;;;20.00;59.10;;;;;;5012849;28;86560;-74
2021/12/14 00:28:43;;;;;;;3.03;0.80;;;20.00;59.10;;;;;;5010752;28;86343;-73
2021/12/14 00:31:14;;;;;;;3.85;0.90;;;20.00;59.10;;;;;;5011763;28;86724;-74
2021/12/14 00:33:42;;;;;;;0.60;0.50;;;20.00;59.10;;;;;;5011036;28;86645;-77
2021/12/14 00:36:09;;;;;;;2.40;0.80;;;19.90;59.60;;;;;;5012200;28;85776;-75
2021/12/14 00:38:36;;;;;;;2.45;0.70;;;19.90;59.10;;;;;;5013090;28;86426;-74
2021/12/14 00:41:15;;;;;;;1.27;0.82;;;20.00;59.10;;;;;;5012890;28;87465;-74
2021/12/14 00:43:42;;;;;;;2.78;0.90;;;19.90;59.10;;;;;;5013208;28;86417;-74
2021/12/14 00:46:09;;;;;;;1.40;0.60;;;19.90;59.10;;;;;;5012861;28;86113;-77
2021/12/14 00:48:35;;;;;;;2.33;0.60;;;19.90;59.10;;;;;;5011813;28;86876;-76
2021/12/14 00:51:03;;;;;;;1.75;0.63;;;19.90;59.20;;;;;;5011734;28;86960;-74
2021/12/14 00:53:30;;;;;;;1.15;0.70;;;19.90;59.10;;;;;;5012183;28;86554;-74
2021/12/14 00:55:58;;;;;;;2.30;0.90;;;19.90;59.20;;;;;;5012347;28;86672;-75
2021/12/14 00:58:24;;;;;;;3.20;0.90;;;19.90;59.20;;;;;;5011873;28;86327;-74
2021/12/14 01:01:12;;;;;;;3.15;0.70;;;19.90;59.20;;;;;;5011288;28;86561;-74
2021/12/14 01:03:42;;;;;;;1.70;0.70;;;19.90;59.20;;;;;;5012705;28;86694;-73
2021/12/14 01:06:11;;;;;;;1.02;0.47;;;19.80;59.20;;;;;;5012801;28;86229;-77
2021/12/14 01:08:39;;;;;;;1.13;0.55;;;19.80;59.20;;;;;;5012004;28;86985;-76
2021/12/14 01:11:15;;;;;;;3.05;0.85;;;19.80;59.30;;;;;;5011651;28;87569;-73
2021/12/14 01:13:51;;;;;;;2.75;0.70;;;19.90;59.20;;;;;;5012154;28;86168;-76
2021/12/14 01:16:31;;;;;;;1.45;0.65;;;19.80;59.20;;;;;;5011484;28;85854;-74
2021/12/14 01:19:13;;;;;;;3.20;0.70;;;19.80;59.20;;;;;;5012396;28;86948;-75
2021/12/14 01:27:01;;;;;;;1.80;0.90;;;19.80;59.20;;;;;;5011970;28;86274;-77
2021/12/14 01:29:28;;;;;;;2.45;1.15;;;19.80;59.30;;;;;;5013045;28;85813;-77
2021/12/14 01:31:59;;;;;;;2.22;0.68;;;19.80;59.30;;;;;;5011755;28;89089;-73
2021/12/14 01:34:25;;;;;;;1.30;0.60;;;19.80;59.30;;;;;;5012526;28;86940;-73
2021/12/14 01:36:55;;;;;;;1.42;0.70;;;19.80;59.30;;;;;;5013003;28;86395;-73
2021/12/14 01:42:08;;;;;;;2.42;0.57;;;19.80;59.30;;;;;;5011567;28;87898;-74
2021/12/14 01:44:44;;;;;;;2.97;0.80;;;19.80;59.30;;;;;;5010555;28;87075;-76
2021/12/14 01:47:19;;;;;;;2.35;0.57;;;19.80;59.30;;;;;;4993603;28;86237;-73
2021/12/14 01:49:45;;;;;;;1.10;0.63;;;19.80;59.30;;;;;;5012224;28;86716;-75
2021/12/14 01:52:24;;;;;;;1.42;0.70;;;19.80;59.30;;;;;;5011639;28;87419;-73
2021/12/14 01:54:55;;;;;;;3.30;0.82;;;19.80;59.40;;;;;;5012015;28;86468;-74
2021/12/14 01:57:24;;;;;;;1.63;0.60;;;19.70;59.40;;;;;;5011600;28;87010;-75
2021/12/14 01:59:54;;;;;;;3.38;0.63;;;19.70;59.40;;;;;;5012211;28;85764;-75
2021/12/14 02:02:33;;;;;;;2.08;0.75;;;19.70;59.30;;;;;;4993225;28;88251;-78
2021/12/14 02:05:05;;;;;;;1.90;0.55;;;19.70;59.40;;;;;;5010759;28;86349;-75
2021/12/14 02:07:32;;;;;;;4.10;0.75;;;19.70;59.40;;;;;;5010607;28;86414;-74
2021/12/14 02:10:07;;;;;;;1.60;0.70;;;19.70;59.40;;;;;;5012132;28;86347;-74
2021/12/14 02:12:33;;;;;;;2.33;0.70;;;19.70;59.40;;;;;;5011095;28;86128;-74
2021/12/14 02:15:15;;;;;;;1.30;0.50;;;19.70;59.40;;;;;;5007996;28;87391;-75
2021/12/14 02:17:41;;;;;;;1.48;0.60;;;19.70;59.40;;;;;;5011116;28;86349;-75
2021/12/14 02:20:09;;;;;;;0.90;0.80;;;19.70;59.40;;;;;;5014935;28;86547;-77
2021/12/14 02:22:35;;;;;;;1.27;0.55;;;19.70;59.40;;;;;;5015418;28;88078;-74
2021/12/14 02:25:03;;;;;;;2.35;0.80;;;19.70;59.50;;;;;;5015482;28;86301;-75
2021/12/14 02:27:36;;;;;;;2.22;0.57;;;19.70;59.40;;;;;;5013988;28;86407;-75
2021/12/14 02:30:08;;;;;;;;;;;19.70;59.50;;;;;;5014542;28;85837;-76
2021/12/14 02:32:34;;;;;;;0.68;0.47;;;19.70;59.50;;;;;;5015923;28;86364;-76
2021/12/14 02:35:04;;;;;;;2.13;0.70;;;19.70;59.50;;;;;;5014843;28;85875;-76
2021/12/14 02:37:38;;;;;;;2.58;0.50;;;19.70;59.50;;;;;;5014398;28;86508;-76
2021/12/14 02:40:16;;;;;;;2.65;0.50;;;19.70;59.50;;;;;;5015470;28;86417;-74
2021/12/14 02:42:42;;;;;;;2.22;0.60;;;19.70;59.50;;;;;;5014489;28;86378;-74
2021/12/14 02:45:09;;;;;;;3.72;0.73;;;19.70;59.60;;;;;;5014458;28;86771;-75
2021/12/14 02:47:34;;;;;;;1.33;0.70;;;19.70;59.60;;;;;;5014727;28;86324;-74
2021/12/14 02:50:00;;;;;;;1.83;0.68;;;19.70;59.60;;;;;;5014298;28;86112;-73
2021/12/14 02:52:36;;;;;;;0.80;0.50;;;19.70;59.60;;;;;;5014044;28;87652;-74
2021/12/14 02:55:10;;;;;;;1.02;0.60;;;19.70;59.70;;;;;;5012638;28;88763;-73
2021/12/14 02:57:39;;;;;;;3.05;0.73;;;19.60;59.60;;;;;;5015197;28;86294;-73
2021/12/14 03:00:12;;;;;;;1.00;0.60;;;19.60;59.70;;;;;;5015273;28;86279;-74
2021/12/14 03:02:38;;;;;;;2.83;0.75;;;19.70;59.80;;;;;;5014804;28;86407;-76
2021/12/14 03:05:15;;;;;;;1.30;0.52;;;19.60;59.70;;;;;;5014354;28;86998;-74
2021/12/14 03:07:56;;;;;;;3.45;0.93;;;19.60;59.80;;;;;;5013487;28;86884;-76
2021/12/14 03:12:54;;;;;;;1.63;0.90;;;19.70;59.90;;;;;;5015269;28;86309;-75
2021/12/14 03:15:32;;;;;;;1.90;0.75;;;19.60;59.80;;;;;;5012973;28;87632;-74
2021/12/14 03:18:08;;;;;;;1.67;0.57;;;19.60;59.80;;;;;;5014229;28;86955;-76
2021/12/14 03:20:40;;;;;;;2.38;0.68;;;19.60;59.80;;;;;;5014874;28;86240;-74
2021/12/14 03:23:13;;;;;;;0.88;0.40;;;19.60;59.80;;;;;;5013878;28;86237;-76
2021/12/14 03:25:42;;;;;;;2.58;0.60;;;19.60;59.80;;;;;;5014270;28;86302;-73
2021/12/14 03:28:09;;;;;;;2.35;0.55;;;19.60;59.90;;;;;;5014081;28;86188;-75
2021/12/14 03:30:42;;;;;;;1.23;0.57;;;19.60;59.90;;;;;;5013439;28;86504;-75
2021/12/14 03:33:16;;;;;;;0.93;0.63;;;19.60;59.90;;;;;;5014524;28;87727;-74
2021/12/14 03:35:59;;;;;;;1.02;0.50;;;19.60;60.00;;;;;;5014052;28;86859;-74
2021/12/14 03:38:54;;;;;;;1.08;0.60;;;19.60;59.90;;;;;;5012923;28;86746;-76
2021/12/14 03:41:28;;;;;;;1.35;0.70;;;19.60;60.00;;;;;;5012784;28;86155;-73
2021/12/14 03:44:02;;;;;;;1.17;0.57;;;19.60;60.00;;;;;;5012752;28;89393;-73
2021/12/14 03:46:31;;;;;;;1.25;0.57;;;19.60;60.00;;;;;;5012616;28;87369;-73
2021/12/14 03:48:57;;;;;;;4.13;0.82;;;19.60;60.00;;;;;;5013763;28;86561;-73
2021/12/14 03:51:24;;;;;;;1.20;0.60;;;19.60;60.00;;;;;;5013763;28;86833;-73
2021/12/14 03:53:55;;;;;;;1.65;0.35;;;19.60;60.00;;;;;;5013437;28;87402;-75
2021/12/14 03:56:22;;;;;;;2.72;0.55;;;19.50;60.00;;;;;;5013853;28;87112;-76
2021/12/14 03:58:49;;;;;;;1.23;0.80;;;19.50;60.00;;;;;;5013766;28;86373;-75
2021/12/14 04:01:23;;;;;;;1.77;0.60;;;19.50;60.00;;;;;;5012892;28;86303;-75
2021/12/14 04:03:53;;;;;;;2.90;0.50;;;19.50;60.00;;;;;;5013284;28;86621;-72
2021/12/14 04:06:19;;;;;;;1.77;0.60;;;19.50;60.00;;;;;;5013511;28;86561;-74
2021/12/14 04:08:46;;;;;;;2.13;0.60;;;19.50;60.00;;;;;;5012650;28;86621;-74
2021/12/14 04:11:13;;;;;;;1.85;0.60;;;19.50;60.00;;;;;;5013101;28;86726;-73
2021/12/14 04:13:45;;;;;;;1.85;0.50;;;19.50;60.10;;;;;;4995847;28;88079;-75
2021/12/14 04:16:16;;;;;;;2.55;0.93;;;19.50;60.10;;;;;;5014209;28;86357;-73
2021/12/14 04:18:42;;;;;;;0.98;0.50;;;19.50;60.10;;;;;;5013785;28;86043;-74
2021/12/14 04:21:08;;;;;;;1.60;0.50;;;19.50;60.10;;;;;;5013813;28;86503;-75
2021/12/14 04:23:39;;;;;;;3.00;1.05;;;19.50;60.10;;;;;;5012580;28;86280;-74
2021/12/14 04:26:09;;;;;;;0.95;0.52;;;19.50;60.20;;;;;;5012720;28;90610;-74
2021/12/14 04:28:40;;;;;;;1.30;0.65;;;19.50;60.10;;;;;;5012973;28;86606;-73
2021/12/14 04:31:06;;;;;;;2.38;0.47;;;19.50;60.10;;;;;;5012977;28;86668;-74
2021/12/14 04:33:35;;;;;;;3.63;0.63;;;19.50;60.20;;;;;;4993892;28;87052;-75
2021/12/14 04:36:04;;;;;;;0.50;0.38;;;19.50;60.20;;;;;;5012590;28;86722;-73
2021/12/14 04:38:34;;;;;;;1.73;0.70;;;19.50;60.20;;;;;;5013337;28;86378;-74
2021/12/14 04:52:13;;;;;;;2.38;0.70;;;19.50;60.20;;;;;;5013920;28;86247;-77
2021/12/14 04:54:46;;;;;;;2.40;0.88;;;19.50;60.20;;;;;;5013210;28;86596;-74
2021/12/14 04:57:24;;;;;;;1.50;0.50;;;19.40;60.20;;;;;;5013181;28;86797;-74
2021/12/14 04:59:53;;;;;;;2.88;0.70;;;19.50;60.20;;;;;;5012837;28;86238;-74
2021/12/14 05:02:31;;;;;;;1.25;0.50;;;19.40;60.20;;;;;;5012812;28;86652;-75
2021/12/14 05:04:58;;;;;;;1.05;0.43;;;19.40;60.20;;;;;;5010693;28;87798;-76
2021/12/14 05:09:52;;;;;;;1.13;0.50;;;19.40;60.20;;;;;;5011743;28;86206;-77
2021/12/14 05:12:21;;;;;;;2.08;0.57;;;19.40;60.20;;;;;;5010097;28;86642;-75
2021/12/14 05:14:48;;;;;;;2.10;0.50;;;19.40;60.20;;;;;;5011715;28;86623;-76
2021/12/14 05:17:25;;;;;;;0.90;0.50;;;19.40;60.20;;;;;;5010189;28;88213;-76
2021/12/14 05:19:52;;;;;;;1.25;0.65;;;19.40;60.20;;;;;;5008512;28;89159;-75
2021/12/14 05:22:22;;;;;;;2.00;0.77;;;19.40;60.20;;;;;;5009858;28;87582;-74
2021/12/14 05:24:52;;;;;;;2.90;0.68;;;19.40;60.20;;;;;;5009236;28;87545;-73
2021/12/14 05:27:29;;;;;;;0.90;0.50;;;19.40;60.20;;;;;;5009337;28;89760;-76
2021/12/14 05:30:29;;;;;;;3.78;0.70;;;19.40;60.20;;;;;;4992044;28;91811;-77
2021/12/14 05:33:08;;;;;;;1.80;0.60;;;19.40;60.20;;;;;;5007414;28;88235;-72
2021/12/14 05:35:37;;;;;;;1.42;0.40;;;19.40;60.20;;;;;;5009926;28;87402;-74
2021/12/14 05:38:04;;;;;;;1.38;0.52;;;19.40;60.20;;;;;;4991309;28;88244;-75
2021/12/14 05:43:07;;;;;;;2.08;0.40;;;19.30;60.20;;;;;;5010069;28;87837;-74
2021/12/14 05:45:36;;;;;;;1.75;0.50;;;19.30;60.20;;;;;;5010605;28;87354;-76
2021/12/14 05:48:02;;;;;;;2.25;0.52;;;19.30;60.30;;;;;;5010166;28;88211;-74
2021/12/14 05:50:37;;;;;;;3.25;0.68;;;19.30;60.30;;;;;;5009313;28;88552;-75
2021/12/14 05:53:04;;;;;;;0.93;0.50;;;19.30;60.30;;;;;;4981684;28;89269;-73
2021/12/14 05:55:34;;;;;;;1.05;0.88;;;19.30;60.30;;;;;;4991372;28;87949;-74
2021/12/14 05:58:01;;;;;;;1.05;0.50;;;19.30;60.30;;;;;;5009674;28;88192;-74
2021/12/14 06:00:29;;;;;;;1.17;0.52;;;19.30;60.30;;;;;;4991869;28;88797;-74
2021/12/14 06:02:54;;;;;;;1.70;0.63;;;19.40;60.40;;;;;;5010007;28;87585;-73
2021/12/14 06:05:22;;;;;;;3.50;0.60;;;19.30;60.30;;;;;;5008904;28;87539;-73
2021/12/14 06:07:49;;;;;;;1.90;0.60;;;19.30;60.30;;;;;;5008574;28;88006;-74
2021/12/14 06:10:19;;;;;;;1.45;0.40;;;19.30;60.30;;;;;;5009722;28;87315;-74
2021/12/14 06:12:45;;;;;;;1.25;0.40;;;19.30;60.30;;;;;;5008578;28;87154;-74
2021/12/14 06:15:17;;;;;;;1.15;0.50;;;19.30;60.30;;;;;;5009242;28;88327;-72
2021/12/14 06:17:43;;;;;;;2.53;0.50;;;19.30;60.30;;;;;;5008428;28;89796;-76
2021/12/14 06:20:13;;;;;;;1.42;0.40;;;19.30;60.30;;;;;;5006798;28;89812;-74
2021/12/14 06:22:41;;;;;;;0.65;0.50;;;19.30;60.30;;;;;;4980083;28;88284;-75
2021/12/14 06:25:11;;;;;;;1.48;0.50;;;19.30;60.40;;;;;;5008384;28;88289;-74
2021/12/14 06:27:37;;;;;;;3.60;0.73;;;19.30;60.30;;;;;;5008976;28;88233;-73
2021/12/14 06:30:25;;;;;;;1.10;0.50;;;19.20;60.30;;;;;;5009693;28;87910;-74
2021/12/14 06:33:07;;;;;;;1.77;0.40;;;19.30;60.30;;;;;;5009680;28;87458;-73
2021/12/14 06:35:47;;;;;;;3.47;0.75;;;19.30;60.30;;;;;;5009422;28;86960;-73
2021/12/14 06:38:30;;;;;;;1.48;0.60;;;19.20;60.30;;;;;;5009141;28;88153;-76
2021/12/14 06:41:12;;;;;;;0.73;0.50;;;19.20;60.30;;;;;;5009848;28;88305;-76
2021/12/14 06:43:40;;;;;;;0.88;0.60;;;19.20;60.30;;;;;;5009560;28;88010;-74
2021/12/14 06:46:14;;;;;;;1.20;0.52;;;19.30;60.40;;;;;;5009740;28;88007;-74
2021/12/14 06:48:53;;;;;;;0.77;0.40;;;19.20;60.40;;;;;;5008469;28;88133;-74
2021/12/14 06:51:39;;;;;;;3.03;0.50;;;19.30;60.30;;;;;;5007809;28;90333;-76
2021/12/14 06:54:16;;;;;;;1.08;0.40;;;19.40;60.20;;;;;;5008540;28;87572;-73
2021/12/14 06:56:47;;;;;;;330.88;51.28;;;19.50;60.00;;;;;;5009110;28;87749;-75
2021/12/14 06:59:15;;;;;;;177.30;25.35;;;19.50;59.80;;;;;;5007776;28;88763;-73
2021/12/14 07:01:56;;;;;;;126.55;22.30;;;19.60;60.10;;;;;;5008907;28;87001;-74
2021/12/14 07:04:33;;;;;;;97.38;17.50;;;19.70;59.90;;;;;;5008467;28;87952;-75
2021/12/14 07:07:06;;;;;;;85.45;15.25;;;19.80;59.20;;;;;;5011694;28;87428;-74
2021/12/14 07:09:35;;;;;;;85.32;15.13;;;19.90;59.00;;;;;;5010382;28;90096;-74
2021/12/14 07:12:04;;;;;;;76.82;15.90;;;20.00;58.80;;;;;;5011469;28;89099;-73
2021/12/14 07:14:32;;;;;;;51.08;10.70;;;20.00;59.00;;;;;;5011827;28;88312;-75
2021/12/14 07:17:18;;;;;;;41.22;9.93;;;20.10;59.20;;;;;;5011913;28;87954;-74
2021/12/14 07:19:55;;;;;;;42.60;9.23;;;20.10;59.30;;;;;;5011508;28;88124;-73
2021/12/14 07:22:29;;;;;;;46.17;9.48;;;20.10;59.30;;;;;;5011392;28;87899;-74
2021/12/14 07:25:00;;;;;;;46.22;9.43;;;20.10;59.20;;;;;;5014771;28;87145;-74
2021/12/14 07:27:28;;;;;;;30.80;6.90;;;20.10;59.40;;;;;;5012074;28;86961;-74
2021/12/14 07:30:16;;;;;;;36.70;8.75;;;20.20;59.40;;;;;;5012139;28;87632;-72
2021/12/14 07:32:58;;;;;;;33.92;8.25;;;20.20;59.30;;;;;;5012002;28;87861;-74
2021/12/14 07:35:36;;;;;;;23.45;6.95;;;20.30;59.40;;;;;;5011291;28;88477;-73
2021/12/14 07:38:24;;;;;;;33.42;7.57;;;20.30;59.30;;;;;;4990821;28;89594;-74
2021/12/14 07:41:10;;;;;;;20.60;6.20;;;20.40;59.10;;;;;;4995701;28;88599;-75
2021/12/14 07:43:59;;;;;;;29.27;6.88;;;20.50;58.80;;;;;;5011784;28;87860;-73
2021/12/14 07:46:30;;;;;;;33.13;6.18;;;20.50;58.50;;;;;;5011826;28;87913;-74
2021/12/14 07:49:11;;;;;;;19.42;5.82;;;20.60;58.30;;;;;;5012304;28;87895;-76
2021/12/14 07:51:39;;;;;;;29.20;6.90;;;20.60;58.00;;;;;;5012233;28;87279;-76
2021/12/14 07:54:12;;;;;;;27.15;6.95;;;20.60;57.70;;;;;;5005099;28;87841;-73
2021/12/14 07:56:45;;;;;;;18.63;6.43;;;20.70;57.70;;;;;;4990918;28;88003;-75
2021/12/14 07:59:20;;;;;;;22.35;6.72;;;20.70;57.50;;;;;;5011604;28;87203;-73
2021/12/14 08:01:48;;;;;;;24.00;5.97;;;20.70;57.40;;;;;;5009901;28;88897;-73
2021/12/14 08:04:13;;;;;;;21.98;6.45;;;20.70;57.20;;;;;;4950231;28;88772;-72
2021/12/14 08:06:50;;;;;;;18.80;6.32;;;20.80;57.10;;;;;;4985915;28;88251;-72
2021/12/14 08:09:30;;;;;;;21.65;5.85;;;20.70;57.00;;;;;;4991171;28;90096;-74
2021/12/14 08:11:56;;;;;;;24.10;5.95;;;20.80;56.90;;;;;;5009536;28;87928;-73
2021/12/14 08:14:28;;;;;;;16.58;5.78;;;20.80;57.20;;;;;;5009015;28;87644;-73
2021/12/14 08:16:56;;;;;;;21.00;5.03;;;20.70;56.50;;;;;;5009604;28;87259;-74
2021/12/14 08:19:30;;;;;;;15.63;4.47;;;20.80;56.50;;;;;;5011687;28;86855;-72
2021/12/14 08:21:57;;;;;;;14.70;5.20;;;20.80;56.30;;;;;;5011026;28;87456;-74
2021/12/14 08:24:23;;;;;;;14.82;4.80;;;20.80;56.30;;;;;;5008930;28;88927;-75
2021/12/14 08:26:52;;;;;;;20.83;5.25;;;20.70;56.20;;;;;;5010473;28;88137;-75
2021/12/14 08:29:23;;;;;;;19.25;5.13;;;20.70;56.10;;;;;;5010514;28;87589;-75
2021/12/14 08:31:52;;;;;;;18.38;5.07;;;20.70;56.20;;;;;;5008773;28;90216;-75
2021/12/14 08:34:27;;;;;;;17.48;4.57;;;20.60;56.60;;;;;;5011952;28;88142;-76
2021/12/14 08:37:01;;;;;;;14.75;4.53;;;20.60;57.20;;;;;;5011586;28;87164;-74
2021/12/14 08:39:31;;;;;;;17.02;4.00;;;20.60;57.50;;;;;;5005311;28;87849;-75
2021/12/14 08:42:10;;;;;;;13.80;5.10;;;20.70;58.10;;;;;;5008215;28;88156;-74
2021/12/14 08:44:40;;;;;;;16.95;4.82;;;20.80;58.30;;;;;;5008650;28;88470;-73
2021/12/14 08:47:11;;;;;;;17.58;4.45;;;20.90;58.10;;;;;;5007372;28;88137;-73
2021/12/14 08:49:38;;;;;;;23.15;6.60;;;21.00;58.20;;;;;;5010510;28;87908;-74
2021/12/14 08:52:06;;;;;;;46.33;17.38;;;21.10;58.20;;;;;;5009880;28;89504;-73
2021/12/14 08:54:33;;;;;;;46.42;17.77;;;21.20;58.30;;;;;;5008821;28;88258;-73
2021/12/14 08:57:08;;;;;;;48.30;17.52;;;21.30;58.50;;;;;;5009002;28;88146;-74
2021/12/14 08:59:34;;;;;;;31.85;11.52;;;21.40;58.90;;;;;;5009954;28;88265;-73
2021/12/14 09:02:02;;;;;;;28.42;11.38;;;21.40;58.00;;;;;;5009323;28;87985;-74
2021/12/14 09:04:32;;;;;;;29.23;11.05;;;21.40;58.20;;;;;;5009610;28;88041;-74
2021/12/14 09:07:09;;;;;;;31.35;10.45;;;21.40;57.80;;;;;;5009778;28;87635;-73
2021/12/14 09:09:37;;;;;;;29.85;9.75;;;21.40;57.80;;;;;;5010184;28;87037;-74
2021/12/14 09:12:13;;;;;;;27.27;10.20;;;21.40;57.90;;;;;;5010388;28;88182;-75
2021/12/14 09:14:40;;;;;;;29.05;10.77;;;21.40;58.00;;;;;;5008513;28;87730;-74
2021/12/14 09:17:08;;;;;;;26.80;9.50;;;21.40;58.10;;;;;;5009660;28;88753;-73
2021/12/14 09:19:41;;;;;;;29.02;8.50;;;21.40;58.40;;;;;;5009952;28;87880;-73
2021/12/14 09:22:11;;;;;;;20.95;7.15;;;21.40;57.90;;;;;;4985843;28;89330;-73
2021/12/14 09:24:39;;;;;;;19.98;6.75;;;21.40;57.30;;;;;;5010748;28;87954;-74
2021/12/14 09:27:09;;;;;;;21.80;6.50;;;21.40;57.00;;;;;;5010187;28;88236;-72
2021/12/14 09:29:36;;;;;;;16.65;6.03;;;21.40;56.80;;;;;;5009698;28;87976;-73
2021/12/14 09:32:05;;;;;;;16.30;6.10;;;21.40;56.70;;;;;;5009619;28;88140;-72
2021/12/14 09:34:35;;;;;;;17.20;5.93;;;21.30;56.60;;;;;;5009093;28;87889;-75
2021/12/14 09:37:04;;;;;;;20.83;6.28;;;21.30;56.60;;;;;;5009296;28;87672;-73
2021/12/14 09:39:33;;;;;;;22.23;6.18;;;21.30;56.60;;;;;;5009906;28;87802;-72
2021/12/14 09:42:04;;;;;;;19.40;6.22;;;21.30;56.70;;;;;;5008692;28;88807;-72
2021/12/14 09:44:32;;;;;;;18.48;5.43;;;21.20;56.70;;;;;;5009440;28;90428;-73
2021/12/14 09:47:02;;;;;;;16.88;5.82;;;21.20;56.80;;;;;;5010937;28;87298;-73
2021/12/14 09:49:29;;;;;;;14.75;5.72;;;21.10;56.70;;;;;;5008023;28;88096;-74
2021/12/14 09:52:04;;;;;;;15.07;5.85;;;21.10;56.90;;;;;;5008286;28;89359;-73
2021/12/14 09:54:30;;;;;;;12.52;5.32;;;21.10;56.90;;;;;;4991679;28;91311;-73
2021/12/14 09:57:01;;;;;;;15.40;6.22;;;21.10;57.00;;;;;;5008382;28;87939;-72
2021/12/14 09:59:26;;;;;;;14.82;5.50;;;21.00;57.00;;;;;;5009445;28;86877;-74
2021/12/14 10:02:04;;;;;;;15.85;5.28;;;21.00;57.10;;;;;;5008875;28;88328;-73
2021/12/14 10:04:46;;;;;;;19.63;6.20;;;21.00;57.20;;;;;;5008080;28;88704;-73
2021/12/14 10:07:12;;;;;;;13.40;5.18;;;20.90;57.20;;;;;;5010154;28;88060;-73
2021/12/14 10:09:42;;;;;;;15.10;5.22;;;20.90;57.20;;;;;;5009231;28;87636;-72
2021/12/14 10:14:50;;;;;;;14.98;5.35;;;20.80;57.20;;;;;;5008612;28;87697;-73
2021/12/14 10:17:18;;;;;;;15.55;4.75;;;20.80;57.30;;;;;;5009210;28;87575;-73
2021/12/14 10:19:45;;;;;;;13.25;5.07;;;20.80;57.40;;;;;;5008987;28;87961;-73
2021/12/14 10:22:33;;;;;;;13.90;4.60;;;20.80;57.40;;;;;;5008946;28;88246;-72
2021/12/14 10:25:07;;;;;;;14.27;5.00;;;20.80;58.00;;;;;;5008961;28;87290;-73
2021/12/14 10:27:34;;;;;;;13.63;5.20;;;20.70;57.60;;;;;;5008843;28;87441;-73
2021/12/14 10:30:11;;;;;;;12.07;4.65;;;20.70;57.70;;;;;;5008961;28;87328;-73
2021/12/14 10:32:37;;;;;;;13.05;4.97;;;20.70;57.70;;;;;;5007729;28;88782;-73
2021/12/14 10:35:08;;;;;;;16.88;5.80;;;20.70;57.80;;;;;;4991171;28;89543;-73
2021/12/14 10:37:51;;;;;;;14.65;4.55;;;20.70;57.90;;;;;;5009401;28;87871;-73
2021/12/14 10:43:15;;;;;;;14.32;4.68;;;20.60;57.90;;;;;;5013543;28;88297;-73
2021/12/14 10:45:48;;;;;;;11.73;4.28;;;20.60;58.00;;;;;;4994014;28;88615;-73
2021/12/14 10:48:14;;;;;;;11.60;4.43;;;20.60;58.00;;;;;;4994831;28;87391;-73
2021/12/14 10:50:40;;;;;;;12.10;4.75;;;20.60;58.10;;;;;;5012562;28;87140;-73
2021/12/14 10:53:08;;;;;;;14.38;4.80;;;20.50;58.10;;;;;;4993458;28;90830;-73
2021/12/14 10:55:45;;;;;;;14.60;4.88;;;20.50;58.10;;;;;;5010535;28;90264;-73
2021/12/14 10:58:15;;;;;;;12.43;4.63;;;20.50;58.20;;;;;;5012470;28;88911;-73
2021/12/14 11:00:45;;;;;;;15.05;4.70;;;20.50;58.20;;;;;;5010846;28;88105;-73
2021/12/14 11:03:17;;;;;;;15.20;4.15;;;20.50;58.20;;;;;;5011547;28;88010;-72
2021/12/14 11:05:51;;;;;;;12.25;4.15;;;20.50;58.30;;;;;;5011477;28;89229;-73
2021/12/14 11:08:45;;;;;;;15.43;5.20;;;20.50;58.30;;;;;;5012436;28;87748;-72
2021/12/14 11:11:08;;;;;;;11.77;4.45;;;20.40;58.20;;;;;;5010986;28;88055;-72
2021/12/14 11:13:46;;;;;;;12.18;4.15;;;20.40;58.20;;;;;;5011423;28;88720;-73
2021/12/14 11:16:20;;;;;;;11.75;3.92;;;20.40;58.20;;;;;;5011283;28;87168;-73
2021/12/14 11:18:48;;;;;;;11.00;4.22;;;20.40;58.20;;;;;;5011924;28;88282;-73
2021/12/14 11:21:19;;;;;;;13.45;4.50;;;20.40;58.20;;;;;;5012169;28;87887;-73
2021/12/14 11:23:47;;;;;;;15.70;4.18;;;20.40;58.20;;;;;;5011165;28;88621;-72
2021/12/14 11:26:21;;;;;;;9.40;3.17;;;20.40;58.20;;;;;;5011323;28;89403;-73
2021/12/14 11:28:53;;;;;;;8.52;3.92;;;20.40;58.20;;;;;;5011491;28;87678;-73
2021/12/14 11:31:30;;;;;;;12.05;3.65;;;20.40;58.10;;;;;;5011782;28;87171;-73
2021/12/14 11:34:00;;;;;;;10.98;3.85;;;20.40;58.10;;;;;;5011740;28;88977;-73
2021/12/14 11:36:31;;;;;;;9.18;3.90;;;20.40;58.10;;;;;;5012174;28;87990;-73
2021/12/14 11:39:08;;;;;;;10.88;4.43;;;20.40;58.10;;;;;;5008905;28;88363;-74
2021/12/14 11:42:11;;;;;;;13.95;4.53;;;20.40;58.20;;;;;;5010654;28;86975;-73
2021/12/14 11:44:58;;;;;;;8.23;4.13;;;20.40;58.20;;;;;;5010934;28;87908;-73
2021/12/14 11:50:00;;;;;;;9.23;4.28;;;20.40;58.20;;;;;;5010709;28;88995;-76
2021/12/14 11:52:50;;;;;;;14.25;4.55;;;20.40;58.20;;;;;;5010897;28;88029;-79
2021/12/14 11:55:40;;;;;;;9.07;3.67;;;20.40;59.20;;;;;;5002874;28;88655;-72
2021/12/14 11:58:39;;;;;;;10.25;3.78;;;20.40;59.50;;;;;;5010364;28;87873;-72
2021/12/14 12:01:10;;;;;;;13.45;4.35;;;20.40;59.60;;;;;;5008945;28;87784;-73
2021/12/14 12:03:53;;;;;;;11.02;4.05;;;20.50;59.70;;;;;;4988268;28;88440;-74
2021/12/14 12:09:35;;;;;;;12.07;3.20;;;20.50;60.10;;;;;;5010348;28;87608;-75
2021/12/14 12:12:04;;;;;;;10.23;3.95;;;20.60;60.30;;;;;;4983195;28;88006;-73
2021/12/14 12:14:38;;;;;;;11.30;3.53;;;20.60;60.20;;;;;;5011878;28;87039;-73
2021/12/14 12:17:28;;;;;;;8.45;3.47;;;20.60;60.30;;;;;;5009523;28;89113;-75
2021/12/14 12:20:12;;;;;;;12.45;4.03;;;20.60;60.40;;;;;;5011019;28;88831;-76
2021/12/14 12:22:40;;;;;;;9.50;3.55;;;20.60;60.60;;;;;;5009907;28;87208;-76
2021/12/14 12:25:19;;;;;;;7.85;3.28;;;20.70;60.70;;;;;;5009825;28;89683;-73
2021/12/14 12:27:49;;;;;;;10.15;3.67;;;20.70;60.80;;;;;;5012529;28;88039;-74
2021/12/14 12:30:47;;;;;;;10.32;3.60;;;20.80;61.00;;;;;;5009175;28;88848;-74
2021/12/14 12:33:27;;;;;;;7.72;3.42;;;20.70;60.90;;;;;;5008447;28;87175;-72
2021/12/14 12:38:21;;;;;;;9.10;3.45;;;20.80;62.00;;;;;;5008384;28;90143;-72
2021/12/14 12:40:52;;;;;;;9.98;3.10;;;20.80;62.30;;;;;;5007429;28;88476;-73
2021/12/14 12:43:29;;;;;;;9.98;3.95;;;20.80;62.00;;;;;;5008736;28;88414;-74
2021/12/14 12:46:07;;;;;;;9.02;3.83;;;20.80;62.10;;;;;;5009562;28;87834;-76
2021/12/14 12:48:44;;;;;;;11.30;3.42;;;20.80;61.50;;;;;;5009077;28;88124;-73
2021/12/14 12:51:10;;;;;;;30.73;12.55;;;20.80;61.50;;;;;;5007946;28;87902;-76
2021/12/14 12:53:36;;;;;;;21.75;7.63;;;20.80;61.60;;;;;;5007701;28;87822;-76
2021/12/14 12:56:13;;;;;;;21.80;7.28;;;20.80;61.90;;;;;;4990834;28;88044;-75
2021/12/14 12:58:44;;;;;;;16.60;6.90;;;20.80;62.00;;;;;;5009216;28;88511;-75
2021/12/14 13:01:10;;;;;;;21.42;7.10;;;20.90;62.10;;;;;;5010524;28;87700;-74
2021/12/14 13:03:40;;;;;;;21.73;7.38;;;20.90;62.20;;;;;;5010186;28;87904;-79
2021/12/14 13:06:09;;;;;;;17.05;6.50;;;20.90;62.20;;;;;;5009225;28;87782;-74
2021/12/14 13:08:44;;;;;;;19.08;6.85;;;20.90;62.30;;;;;;5010056;28;89118;-75
2021/12/14 13:11:15;;;;;;;20.08;6.75;;;20.90;62.60;;;;;;5009008;28;87986;-74
2021/12/14 13:13:47;;;;;;;18.33;7.03;;;20.90;62.80;;;;;;5010325;28;87105;-75
2021/12/14 13:16:20;;;;;;;17.45;6.57;;;21.00;62.80;;;;;;5008885;28;87510;-76
2021/12/14 13:18:50;;;;;;;25.50;6.75;;;21.00;62.80;;;;;;5009514;28;88864;-74
2021/12/14 13:21:34;;;;;;;18.20;6.53;;;21.00;62.90;;;;;;5011078;28;88003;-76
2021/12/14 13:24:18;;;;;;;15.88;6.63;;;21.00;63.00;;;;;;5010218;28;88449;-73
2021/12/14 13:26:57;;;;;;;14.18;5.97;;;21.00;63.40;;;;;;5010976;28;87538;-75
2021/12/14 13:29:29;;;;;;;14.98;6.10;;;21.00;63.30;;;;;;5009375;28;87694;-73
2021/12/14 13:32:02;;;;;;;17.17;5.78;;;21.10;63.50;;;;;;5008649;28;87658;-73
2021/12/14 13:34:29;;;;;;;15.07;5.75;;;21.10;63.10;;;;;;5009275;28;89127;-75
2021/12/14 13:36:57;;;;;;;14.38;5.53;;;21.10;62.20;;;;;;4999950;28;88709;-75
2021/12/14 13:39:24;;;;;;;13.95;5.40;;;21.10;61.50;;;;;;5007633;28;87979;-74
2021/12/14 13:42:07;;;;;;;14.82;5.28;;;21.10;61.60;;;;;;5008947;28;87970;-77
2021/12/14 13:44:37;;;;;;;11.90;5.07;;;21.10;61.70;;;;;;4990048;28;87692;-74
2021/12/14 13:47:06;;;;;;;11.48;5.07;;;21.10;61.90;;;;;;5008702;28;87439;-76
2021/12/14 13:49:32;;;;;;;15.48;5.35;;;21.00;62.20;;;;;;5009622;28;88057;-74
2021/12/14 13:51:58;;;;;;;12.65;5.10;;;21.00;62.50;;;;;;5009234;28;87380;-76